hwlogo.jpg (8581 bytes)
Home Your Weather Products Services Weather On Your Site Contact
HW Version Logo
Weather Info
Your Weather (Options)
Canadian Weather
International Weather
Enter your " Place, State", US Zip Code or ICAO:  
Forecast Information Radar Information
Lethbridge, Alberta, Canada  Lat: 49.60N, Lon: 112.78W
ICAO Used: CYQL
Current Conditions
Updated: 12:00 AM MST MON FEB 19 2018
Sun & Moon Information
Overcast
Overcast
Temp: -25°C
Humidity: 76%
Wind Speed: SW 6 MPH
Barometer: 1019 mb
Dewpoint: -28°C
Heat Index: -25°C
Wind Chill: -33°C
Civil Twilight: 7:03 AM MST Moon Phase:
Waxing Crescent Moon
Sunrise: 7:36 AM MST
Sunset: 5:53 PM MST
Civil Twilight: 6:26 PM MST
Forecast for Lethbridge, AB:
(Forecast based on TAF for )
1148 PM MST SUN FEB 18 2018
  
OVERNIGHT MORNING
Mostly
Cloudy
Mostly
Cloudy
ZoneCast:
Dated: 1148 PM MST SUN FEB 18 2018
Overnight...Mostly cloudy with winds from the southsouthwest at 9 mph.

Morning...Mostly cloudy with winds from the southsouthwest at 9 mph.

Original Encoded TAF:
Dated: 1148 PM MST SUN FEB 18 2018
2018/02/19 06:48
TAF CYQL 190546Z 1906/1918 24008KT P6SM BKN050 
      TEMPO 1906/1918 6SM -SN BKN040 
      RMK FCST BASED ON AUTO OBS. NXT FCST BY 191200Z